createdAt,value
2022-09-17T00:01:25.209Z,5.43
2022-09-17T00:03:55.834Z,4.20
2022-09-17T00:06:25.151Z,4.35
2022-09-17T00:08:54.217Z,6.80
2022-09-17T00:11:29.086Z,4.38
2022-09-17T00:13:58.894Z,6.22
2022-09-17T00:16:36.573Z,5.28
2022-09-17T00:19:06.065Z,4.93
2022-09-17T00:21:33.046Z,3.97
2022-09-17T00:24:03.486Z,4.80
2022-09-17T00:26:32.039Z,3.75
2022-09-17T00:29:00.329Z,3.08
2022-09-17T00:31:28.953Z,2.60
2022-09-17T00:33:55.957Z,3.47
2022-09-17T00:36:23.723Z,3.75
2022-09-17T00:38:55.714Z,2.85
2022-09-17T00:41:25.567Z,3.28
2022-09-17T00:44:01.756Z,4.00
2022-09-17T00:46:36.283Z,2.97
2022-09-17T00:49:11.999Z,2.30
2022-09-17T00:51:49.964Z,3.55
2022-09-17T00:54:16.881Z,2.50
2022-09-17T00:56:44.414Z,2.78
2022-09-17T00:59:11.508Z,3.97
2022-09-17T01:01:39.118Z,3.25
2022-09-17T01:04:06.083Z,7.20
2022-09-17T01:06:41.851Z,4.25
2022-09-17T01:09:48.946Z,4.55
2022-09-17T01:12:55.237Z,5.47
2022-09-17T01:15:35.111Z,2.30
2022-09-17T01:18:36.887Z,2.55
2022-09-17T01:21:41.046Z,6.28
2022-09-17T01:24:35.871Z,4.93
2022-09-17T01:27:34.183Z,3.92
2022-09-17T01:30:32.470Z,3.35
2022-09-17T01:33:15.917Z,5.40
2022-09-17T01:36:06.865Z,3.60
2022-09-17T01:38:55.290Z,2.78
2022-09-17T01:41:43.882Z,2.78
2022-09-17T01:44:44.798Z,2.30
2022-09-17T01:47:22.653Z,2.47
2022-09-17T01:49:56.346Z,3.15
2022-09-17T01:52:25.144Z,3.30
2022-09-17T01:54:56.954Z,3.92
2022-09-17T01:57:30.445Z,6.65
2022-09-17T02:00:11.911Z,4.63
2022-09-17T02:03:07.725Z,3.15
2022-09-17T02:05:43.191Z,2.65
2022-09-17T02:08:19.192Z,2.92
2022-09-17T02:10:52.792Z,2.75
2022-09-17T02:13:23.402Z,3.17
2022-09-17T02:15:57.825Z,2.38
2022-09-17T02:18:33.893Z,2.78
2022-09-17T02:21:15.588Z,2.88
2022-09-17T02:24:04.362Z,4.32
2022-09-17T02:26:32.966Z,2.15
2022-09-17T02:29:08.945Z,2.78
2022-09-17T02:31:35.934Z,2.20
2022-09-17T02:34:04.567Z,3.47
2022-09-17T02:36:32.267Z,3.03
2022-09-17T02:39:01.725Z,4.85
2022-09-17T02:41:50.567Z,2.83
2022-09-17T02:44:35.388Z,3.15
2022-09-17T02:47:38.131Z,3.53
2022-09-17T02:51:08.359Z,3.45
2022-09-17T02:54:16.259Z,4.55
2022-09-17T02:56:57.229Z,3.67
2022-09-17T02:59:42.604Z,3.20
2022-09-17T03:02:17.572Z,4.55
2022-09-17T03:04:47.806Z,4.50
2022-09-17T03:07:15.192Z,5.75
2022-09-17T03:09:43.567Z,5.30
2022-09-17T03:12:11.741Z,3.65
2022-09-17T03:14:38.693Z,3.30
2022-09-17T03:17:05.618Z,3.17
2022-09-17T03:19:32.836Z,3.10
2022-09-17T03:21:59.705Z,4.20
2022-09-17T03:24:27.143Z,4.18
2022-09-17T03:26:54.095Z,5.28
2022-09-17T03:29:21.054Z,6.88
2022-09-17T03:31:48.018Z,5.22
2022-09-17T03:34:14.925Z,5.20
2022-09-17T03:36:41.819Z,2.88
2022-09-17T03:39:08.782Z,5.68
2022-09-17T03:41:35.692Z,5.18
2022-09-17T03:44:03.016Z,4.55
2022-09-17T03:46:29.994Z,2.70
2022-09-17T03:48:56.921Z,4.00
2022-09-17T03:51:23.819Z,4.28
2022-09-17T03:53:50.797Z,4.03
2022-09-17T03:56:17.886Z,5.07
2022-09-17T03:58:44.866Z,4.95
2022-09-17T04:01:11.819Z,3.92
2022-09-17T04:03:38.830Z,4.82
2022-09-17T04:06:05.881Z,3.30
2022-09-17T04:08:32.808Z,3.00
2022-09-17T04:10:59.709Z,3.00
2022-09-17T04:13:26.575Z,2.70
2022-09-17T04:15:53.545Z,3.45
2022-09-17T04:18:20.522Z,4.07
2022-09-17T04:20:47.490Z,3.70
2022-09-17T04:23:14.439Z,9.77
2022-09-17T04:25:41.684Z,2.88
2022-09-17T04:28:08.656Z,2.92
2022-09-17T04:30:35.909Z,3.70
2022-09-17T04:33:03.275Z,7.75
2022-09-17T04:35:30.648Z,3.17
2022-09-17T04:37:58.475Z,5.50
2022-09-17T04:40:27.171Z,5.47
2022-09-17T04:42:55.912Z,4.15
2022-09-17T04:45:23.551Z,4.72
2022-09-17T04:47:52.970Z,2.72
2022-09-17T04:50:20.427Z,4.53
2022-09-17T04:52:48.353Z,6.00
2022-09-17T04:55:16.229Z,4.38
2022-09-17T04:57:52.309Z,7.47
2022-09-17T05:00:21.502Z,4.43
2022-09-17T05:02:52.910Z,2.95
2022-09-17T05:05:20.805Z,6.38
2022-09-17T05:07:47.806Z,4.93
2022-09-17T05:10:17.267Z,3.08
2022-09-17T05:12:55.999Z,4.68
2022-09-17T05:15:24.684Z,2.95
2022-09-17T05:17:51.645Z,7.22
2022-09-17T05:20:18.860Z,6.72
2022-09-17T05:22:49.502Z,3.00
2022-09-17T05:25:18.248Z,5.90
2022-09-17T05:27:45.642Z,5.15
2022-09-17T05:30:13.176Z,3.65
2022-09-17T05:32:40.880Z,4.75
2022-09-17T05:35:09.336Z,3.42
2022-09-17T05:37:36.727Z,3.30
2022-09-17T05:40:07.153Z,4.93
2022-09-17T05:42:34.380Z,4.75
2022-09-17T05:45:01.386Z,2.53
2022-09-17T05:47:28.294Z,6.03
2022-09-17T05:49:55.182Z,4.80
2022-09-17T05:52:22.088Z,4.40
2022-09-17T05:54:49.026Z,3.92
2022-09-17T05:57:16.140Z,8.07
2022-09-17T05:59:43.227Z,2.50
2022-09-17T06:02:13.980Z,3.00
2022-09-17T06:04:41.141Z,3.17
2022-09-17T06:07:09.360Z,2.83
2022-09-17T06:09:37.706Z,6.22
2022-09-17T06:12:05.862Z,1.75
2022-09-17T06:14:32.948Z,2.95
2022-09-17T06:17:00.374Z,4.30
2022-09-17T06:19:27.935Z,2.78
2022-09-17T06:21:55.270Z,3.40
2022-09-17T06:24:22.226Z,3.22
2022-09-17T06:26:49.072Z,4.28
2022-09-17T06:29:16.073Z,3.42
2022-09-17T06:31:46.232Z,6.45
2022-09-17T06:34:13.222Z,5.97
2022-09-17T06:36:40.307Z,2.88
2022-09-17T06:39:07.798Z,4.75
2022-09-17T06:41:34.729Z,2.97
2022-09-17T06:44:04.853Z,4.80
2022-09-17T06:46:31.856Z,2.35
2022-09-17T06:48:59.014Z,4.38
2022-09-17T06:51:25.939Z,4.03
2022-09-17T06:53:52.797Z,2.17
2022-09-17T06:56:19.923Z,5.28
2022-09-17T06:58:47.052Z,5.85
2022-09-17T07:01:14.609Z,3.55
2022-09-17T07:03:43.533Z,4.32
2022-09-17T07:06:11.305Z,3.95
2022-09-17T07:08:39.485Z,4.05
2022-09-17T07:11:06.474Z,3.65
2022-09-17T07:13:33.347Z,11.07
2022-09-17T07:16:02.817Z,6.95
2022-09-17T07:18:29.828Z,2.45
2022-09-17T07:21:00.204Z,3.15
2022-09-17T07:23:36.161Z,5.40
2022-09-17T07:26:12.405Z,2.63
2022-09-17T07:28:40.737Z,4.53
2022-09-17T07:31:12.448Z,3.30
2022-09-17T07:33:42.516Z,6.00
2022-09-17T07:36:13.680Z,2.67
2022-09-17T07:38:40.737Z,2.25
2022-09-17T07:41:16.787Z,3.83
2022-09-17T07:43:44.669Z,6.00
2022-09-17T07:46:16.819Z,3.70
2022-09-17T07:48:43.881Z,2.75
2022-09-17T07:51:19.491Z,4.07
2022-09-17T07:53:47.742Z,3.33
2022-09-17T07:56:14.849Z,4.07
2022-09-17T07:58:42.274Z,5.85
2022-09-17T08:01:12.008Z,5.63
2022-09-17T08:03:40.170Z,2.63
2022-09-17T08:06:13.373Z,3.10
2022-09-17T08:08:41.315Z,4.22
2022-09-17T08:11:32.411Z,5.13
2022-09-17T08:14:05.248Z,2.67
2022-09-17T08:16:32.311Z,4.18
2022-09-17T08:18:59.288Z,4.70
2022-09-17T08:21:26.388Z,4.20
2022-09-17T08:23:53.249Z,4.80
2022-09-17T08:26:22.977Z,4.15
2022-09-17T08:28:56.564Z,2.15
2022-09-17T08:31:26.903Z,3.58
2022-09-17T08:33:53.988Z,4.63
2022-09-17T08:36:22.750Z,3.92
2022-09-17T08:38:53.903Z,4.43
2022-09-17T08:41:54.365Z,3.25
2022-09-17T08:44:52.366Z,4.68
2022-09-17T08:47:36.490Z,2.38
2022-09-17T08:50:07.594Z,3.80
2022-09-17T08:52:59.568Z,2.38
2022-09-17T08:55:53.423Z,3.78
2022-09-17T08:58:44.497Z,2.75
2022-09-17T09:01:28.154Z,3.30
2022-09-17T09:04:40.085Z,2.88
2022-09-17T09:07:39.691Z,3.38
2022-09-17T09:10:27.978Z,3.08
2022-09-17T09:12:57.477Z,4.90
2022-09-17T09:15:36.269Z,1.88
2022-09-17T09:18:18.762Z,1.42
2022-09-17T09:20:55.012Z,3.78
2022-09-17T09:23:46.756Z,1.75
2022-09-17T09:26:19.155Z,2.15
2022-09-17T09:29:30.568Z,2.50
2022-09-17T09:32:22.993Z,2.42
2022-09-17T09:34:50.614Z,9.43
2022-09-17T09:38:01.058Z,3.60
2022-09-17T09:40:41.910Z,5.53
2022-09-17T09:44:02.645Z,4.50
2022-09-17T09:47:04.802Z,2.58
2022-09-17T09:50:08.183Z,3.25
2022-09-17T09:52:58.746Z,3.53
2022-09-17T09:56:05.624Z,3.88
2022-09-17T09:58:38.681Z,5.00
2022-09-17T10:01:23.114Z,5.13
2022-09-17T10:03:52.755Z,13.02
2022-09-17T10:06:20.087Z,11.15
2022-09-17T10:08:55.338Z,8.93
2022-09-17T10:11:28.001Z,11.45
2022-09-17T10:14:14.066Z,12.20
2022-09-17T10:16:41.005Z,12.70
2022-09-17T10:19:07.757Z,9.13
2022-09-17T10:21:42.752Z,8.52
2022-09-17T10:24:31.070Z,7.40
2022-09-17T10:27:03.276Z,8.63
2022-09-17T10:29:30.529Z,3.38
2022-09-17T10:31:58.944Z,3.35
2022-09-17T10:34:29.028Z,4.18
2022-09-17T10:36:57.290Z,7.28
2022-09-17T10:39:27.115Z,4.93
2022-09-17T10:42:11.261Z,2.88
2022-09-17T10:44:39.944Z,2.70
2022-09-17T10:47:14.566Z,4.15
2022-09-17T10:49:47.169Z,10.18
2022-09-17T10:52:37.785Z,2.33
2022-09-17T10:55:49.848Z,5.50
2022-09-17T10:58:43.876Z,10.90
2022-09-17T11:01:34.924Z,5.18
2022-09-17T11:04:34.554Z,6.60
2022-09-17T11:07:24.177Z,5.28
2022-09-17T11:10:31.846Z,2.33
2022-09-17T11:13:24.652Z,4.18
2022-09-17T11:16:35.888Z,2.78
2022-09-17T11:19:24.576Z,2.75
2022-09-17T11:22:12.055Z,2.30
2022-09-17T11:24:56.863Z,3.00
2022-09-17T11:28:03.917Z,5.20
2022-09-17T11:31:13.926Z,10.77
2022-09-17T11:34:17.259Z,8.93
2022-09-17T11:36:57.207Z,6.03
2022-09-17T11:39:53.785Z,6.10
2022-09-17T11:42:28.033Z,4.95
2022-09-17T11:45:10.690Z,3.83
2022-09-17T11:47:47.490Z,6.00
2022-09-17T11:50:21.739Z,5.63
2022-09-17T11:53:17.280Z,2.33
2022-09-17T11:55:56.876Z,3.40
2022-09-17T11:58:34.627Z,2.75
2022-09-17T12:01:19.275Z,2.85
2022-09-17T12:04:00.529Z,3.55
2022-09-17T12:06:38.021Z,1.95
2022-09-17T12:09:14.297Z,1.60
2022-09-17T12:12:04.291Z,1.23
2022-09-17T12:15:06.587Z,2.03
2022-09-17T12:17:49.284Z,1.25
2022-09-17T12:20:29.318Z,2.40
2022-09-17T12:22:58.725Z,3.25
2022-09-17T12:25:33.011Z,2.50
2022-09-17T12:28:11.953Z,3.58
2022-09-17T12:31:13.204Z,1.50
2022-09-17T12:33:55.357Z,2.10
2022-09-17T12:36:42.870Z,3.13
2022-09-17T12:40:03.210Z,1.38
2022-09-17T12:42:44.485Z,1.40
2022-09-17T12:45:23.542Z,1.60
2022-09-17T12:48:25.593Z,1.90
2022-09-17T12:51:53.793Z,1.38
2022-09-17T12:54:45.262Z,2.58
2022-09-17T12:57:32.257Z,2.88
2022-09-17T13:00:23.809Z,4.88
2022-09-17T13:03:22.807Z,2.97
2022-09-17T13:06:20.213Z,5.60
2022-09-17T13:09:17.672Z,6.13
2022-09-17T13:12:34.636Z,4.45
2022-09-17T13:15:38.955Z,7.10
2022-09-17T13:18:27.660Z,4.05
2022-09-17T13:21:18.077Z,13.95
2022-09-17T13:23:49.499Z,5.65
2022-09-17T13:26:21.371Z,4.90
2022-09-17T13:28:51.179Z,9.50
2022-09-17T13:31:36.843Z,51.55
2022-09-17T13:34:05.062Z,16.58
2022-09-17T13:36:53.021Z,7.78
2022-09-17T13:39:44.834Z,3.58
2022-09-17T13:42:24.395Z,11.48
2022-09-17T13:45:09.952Z,6.03
2022-09-17T13:48:02.499Z,3.53
2022-09-17T13:50:39.050Z,3.28
2022-09-17T13:53:15.060Z,4.85
2022-09-17T13:56:05.068Z,3.78
2022-09-17T13:58:34.549Z,3.33
2022-09-17T14:01:59.214Z,3.80
2022-09-17T14:04:41.053Z,4.32
2022-09-17T14:07:28.867Z,4.60
2022-09-17T14:10:22.367Z,5.88
2022-09-17T14:12:52.254Z,7.18
2022-09-17T14:15:54.951Z,5.80
2022-09-17T14:18:28.003Z,7.05
2022-09-17T14:21:09.844Z,5.97
2022-09-17T14:23:49.845Z,6.25
2022-09-17T14:27:05.260Z,6.32
2022-09-17T14:30:01.478Z,5.95
2022-09-17T14:33:03.484Z,6.47
2022-09-17T14:35:45.988Z,6.47
2022-09-17T14:38:44.623Z,3.83
2022-09-17T14:41:11.494Z,4.13
2022-09-17T14:44:06.143Z,4.05
2022-09-17T14:46:38.563Z,3.60
2022-09-17T14:49:27.157Z,3.13
2022-09-17T14:51:56.292Z,3.83
2022-09-17T14:54:36.305Z,3.08
2022-09-17T14:57:09.606Z,5.90
2022-09-17T14:59:58.210Z,5.43
2022-09-17T15:02:44.932Z,4.63
2022-09-17T15:05:21.494Z,4.75
2022-09-17T15:07:48.978Z,4.57
2022-09-17T15:10:22.518Z,4.88
2022-09-17T15:12:50.871Z,4.80
2022-09-17T15:15:25.154Z,6.40
2022-09-17T15:17:53.881Z,10.65
2022-09-17T15:20:25.044Z,7.60
2022-09-17T15:23:14.805Z,12.25
2022-09-17T15:25:44.312Z,8.95
2022-09-17T15:28:37.023Z,8.77
2022-09-17T15:31:06.716Z,3.75
2022-09-17T15:33:34.407Z,2.63
2022-09-17T15:36:08.763Z,5.20
2022-09-17T15:38:39.121Z,3.38
2022-09-17T15:41:31.378Z,3.50
2022-09-17T15:44:30.275Z,2.53
2022-09-17T15:47:44.141Z,3.28
2022-09-17T15:50:25.402Z,3.55
2022-09-17T15:53:30.183Z,11.48
2022-09-17T15:56:14.487Z,7.05
2022-09-17T15:58:41.268Z,4.43
2022-09-17T16:01:17.493Z,3.92
2022-09-17T16:03:44.571Z,4.85
2022-09-17T16:06:23.272Z,3.95
2022-09-17T16:09:00.708Z,6.20
2022-09-17T16:11:31.343Z,5.80
2022-09-17T16:14:00.458Z,12.52
2022-09-17T16:16:35.870Z,20.60
2022-09-17T16:19:04.748Z,17.02
2022-09-17T16:21:32.178Z,12.85
2022-09-17T16:23:59.363Z,10.95
2022-09-17T16:26:31.111Z,9.45
2022-09-17T16:29:05.887Z,7.75
2022-09-17T16:31:33.997Z,8.88
2022-09-17T16:34:01.357Z,7.15
2022-09-17T16:36:31.113Z,7.55
2022-09-17T16:38:59.265Z,9.05
2022-09-17T16:41:26.532Z,6.90
2022-09-17T16:43:53.502Z,11.48
2022-09-17T16:46:20.465Z,10.50
2022-09-17T16:48:51.135Z,14.18
2022-09-17T16:51:18.479Z,15.10
2022-09-17T16:53:45.753Z,15.80
2022-09-17T16:56:15.098Z,16.63
2022-09-17T16:58:42.006Z,23.05
2022-09-17T17:01:16.160Z,20.05
2022-09-17T17:03:45.730Z,20.67
2022-09-17T17:06:19.693Z,23.20
2022-09-17T17:08:47.080Z,15.57
2022-09-17T17:11:14.274Z,15.20
2022-09-17T17:13:44.985Z,16.25
2022-09-17T17:16:15.051Z,12.73
2022-09-17T17:18:46.653Z,9.27
2022-09-17T17:21:15.064Z,9.60
2022-09-17T17:23:47.162Z,9.88
2022-09-17T17:26:16.072Z,13.57
2022-09-17T17:28:43.326Z,11.07
2022-09-17T17:31:11.655Z,11.57
2022-09-17T17:33:38.826Z,11.77
2022-09-17T17:36:08.095Z,9.18
2022-09-17T17:38:36.518Z,9.13
2022-09-17T17:41:15.119Z,9.40
2022-09-17T17:43:42.363Z,9.95
2022-09-17T17:46:11.786Z,13.10
2022-09-17T17:48:39.043Z,9.02
2022-09-17T17:51:09.003Z,7.88
2022-09-17T17:53:36.351Z,9.18
2022-09-17T17:56:08.736Z,10.32
2022-09-17T17:58:38.117Z,7.57
2022-09-17T18:01:17.367Z,9.77
2022-09-17T18:03:44.803Z,9.07
2022-09-17T18:06:12.061Z,7.43
2022-09-17T18:08:41.352Z,8.52
2022-09-17T18:11:10.392Z,10.95
2022-09-17T18:13:39.563Z,11.73
2022-09-17T18:16:10.379Z,8.82
2022-09-17T18:18:44.971Z,11.98
2022-09-17T18:21:18.330Z,10.32
2022-09-17T18:23:46.204Z,12.57
2022-09-17T18:26:16.997Z,12.20
2022-09-17T18:28:44.030Z,14.13
2022-09-17T18:31:29.908Z,12.48
2022-09-17T18:34:04.836Z,11.35
2022-09-17T18:36:34.746Z,12.02
2022-09-17T18:41:52.742Z,10.25
2022-09-17T18:44:21.853Z,17.10
2022-09-17T18:46:50.173Z,18.23
2022-09-17T18:49:17.641Z,17.70
2022-09-17T18:51:44.566Z,16.30
2022-09-17T18:54:12.921Z,15.02
2022-09-17T18:56:41.526Z,14.73
2022-09-17T18:59:09.646Z,17.02
2022-09-17T19:01:36.659Z,17.80
2022-09-17T19:04:04.273Z,19.00
2022-09-17T19:06:34.077Z,24.27
2022-09-17T19:09:03.235Z,23.15
2022-09-17T19:11:30.522Z,31.77
2022-09-17T19:13:57.543Z,43.72
2022-09-17T19:16:24.570Z,54.53
2022-09-17T19:18:51.766Z,52.45
2022-09-17T19:21:21.601Z,47.83
2022-09-17T19:23:51.714Z,47.00
2022-09-17T19:26:25.345Z,41.50
2022-09-17T19:28:54.428Z,36.53
2022-09-17T19:31:21.771Z,32.13
2022-09-17T19:33:48.861Z,32.35
2022-09-17T19:36:18.376Z,34.78
2022-09-17T19:38:46.553Z,30.45
2022-09-17T19:41:17.566Z,26.83
2022-09-17T19:43:47.917Z,20.13
2022-09-17T19:46:18.098Z,19.27
2022-09-17T19:48:57.487Z,16.40
2022-09-17T19:51:26.926Z,16.55
2022-09-17T19:53:53.935Z,18.83
2022-09-17T19:56:23.897Z,20.20
2022-09-17T19:58:51.115Z,18.02
2022-09-17T20:01:18.537Z,17.05
2022-09-17T20:03:46.517Z,18.77
2022-09-17T20:06:17.259Z,19.65
2022-09-17T20:08:54.806Z,14.55
2022-09-17T20:11:24.897Z,13.85
2022-09-17T20:13:58.403Z,16.13
2022-09-17T20:16:25.681Z,14.88
2022-09-17T20:18:52.658Z,17.42
2022-09-17T20:21:29.542Z,17.05
2022-09-17T20:23:57.696Z,19.20
2022-09-17T20:26:26.291Z,19.88
2022-09-17T20:28:54.931Z,19.15
2022-09-17T20:31:25.440Z,18.50
2022-09-17T20:33:58.413Z,18.10
2022-09-17T20:36:30.732Z,19.70
2022-09-17T20:39:11.351Z,21.80
2022-09-17T20:41:40.336Z,18.05
2022-09-17T20:44:07.840Z,18.13
2022-09-17T20:46:34.867Z,16.33
2022-09-17T20:49:01.886Z,20.80
2022-09-17T20:51:30.700Z,21.77
2022-09-17T20:53:57.934Z,20.55
2022-09-17T20:56:29.239Z,23.00
2022-09-17T20:59:17.834Z,18.95
2022-09-17T21:01:49.959Z,18.20
2022-09-17T21:04:21.913Z,18.35
2022-09-17T21:06:52.911Z,22.42
2022-09-17T21:09:20.083Z,19.98
2022-09-17T21:11:48.744Z,17.20
2022-09-17T21:14:17.208Z,22.17
2022-09-17T21:16:44.930Z,21.45
2022-09-17T21:19:14.136Z,20.15
2022-09-17T21:21:41.012Z,22.20
2022-09-17T21:24:10.264Z,19.88
2022-09-17T21:26:37.381Z,23.50
2022-09-17T21:29:04.761Z,23.88
2022-09-17T21:31:34.448Z,23.05
2022-09-17T21:34:06.457Z,23.45
2022-09-17T21:36:36.917Z,20.73
2022-09-17T21:39:10.780Z,19.90
2022-09-17T21:41:42.133Z,20.45
2022-09-17T21:44:11.465Z,19.08
2022-09-17T21:46:40.142Z,22.00
2022-09-17T21:49:07.349Z,20.10
2022-09-17T21:51:40.721Z,18.50
2022-09-17T21:54:15.808Z,20.27
2022-09-17T21:56:44.326Z,20.70
2022-09-17T21:59:13.710Z,21.75
2022-09-17T22:01:47.336Z,17.45
2022-09-17T22:04:20.638Z,14.68
2022-09-17T22:06:49.469Z,17.20
2022-09-17T22:09:23.004Z,16.77
2022-09-17T22:11:51.087Z,16.42
2022-09-17T22:14:21.482Z,23.70
2022-09-17T22:16:52.629Z,19.88
2022-09-17T22:19:21.962Z,19.20
2022-09-17T22:21:52.769Z,17.45
2022-09-17T22:24:21.712Z,20.73
2022-09-17T22:26:56.499Z,16.85
2022-09-17T22:29:24.854Z,18.27
2022-09-17T22:31:51.806Z,18.75
2022-09-17T22:34:21.883Z,17.88
2022-09-17T22:36:49.482Z,15.20
2022-09-17T22:39:18.918Z,14.85
2022-09-17T22:41:46.028Z,15.48
2022-09-17T22:44:18.759Z,14.77
2022-09-17T22:46:48.699Z,14.23
2022-09-17T22:49:16.103Z,15.57
2022-09-17T22:51:44.987Z,18.13
2022-09-17T22:54:14.694Z,12.93
2022-09-17T22:56:42.222Z,12.32
2022-09-17T22:59:09.198Z,14.70
2022-09-17T23:01:37.355Z,16.27
2022-09-17T23:04:05.231Z,13.00
2022-09-17T23:06:36.075Z,16.30
2022-09-17T23:09:03.975Z,17.52
2022-09-17T23:11:34.762Z,12.50
2022-09-17T23:14:07.184Z,11.68
2022-09-17T23:16:43.487Z,10.35
2022-09-17T23:19:11.835Z,10.02
2022-09-17T23:21:39.597Z,8.93
2022-09-17T23:24:06.600Z,9.88
2022-09-17T23:26:33.943Z,7.25
2022-09-17T23:29:05.556Z,7.03
2022-09-17T23:31:34.955Z,7.55
2022-09-17T23:34:02.956Z,7.13
2022-09-17T23:36:36.010Z,9.82
2022-09-17T23:39:04.527Z,5.88
2022-09-17T23:41:38.616Z,6.60
2022-09-17T23:44:13.778Z,9.20
2022-09-17T23:46:41.940Z,6.10
2022-09-17T23:49:12.178Z,5.72
2022-09-17T23:51:39.123Z,6.15
2022-09-17T23:54:07.282Z,7.28
2022-09-17T23:56:34.662Z,7.75
2022-09-17T23:59:02.535Z,8.05
